Terminal Aerodrome Forecast
Issued by NWS

Home | Current Version | Previous Version | Text Only | Print | Product List | Glossary On
Versions: 1 2 3 4 5 6 7 8 9 10 11 12
000
FTUS42 TJSJ 170541
TAFJMZ
TAF
TJMZ 170541Z 1706/1806 07005KT P6SM VCSH FEW025 SCT060
     FM171450 07015KT P6SM VCSH FEW025 FEW035 SCT040
     FM172300 06004KT P6SM FEW050
      AMD NOT SKED=

USA.gov is the U.S. government's official web portal to all federal, state and local government web resources and services.